Hayfield, Middle Canyon, Santa Catalina Island Weather observations

Data are for 10 minute period ending at time listed.
 Day   Time   Solar   Ave.   Ave.  Ave.  Vector    Max.   Stn.    Total
  of    of     Rad.   Air    Rel.  Wind   Wind     Wind   Baro.  Precip. 
Year   Day            Temp.  Hum.  Speed  Dir.     Gust   Pres.          
2015   (PST)   W/m2    F      %     mph   deg.      mph    mb.     in.   
-------------------------------------------------------------------------
  86    2:00    0.0    54   53.1     3    121.7     6.6    999.0   0.00
  86    2:10    0.0    54   53.0     3    118.4     4.9    999.0   0.00
  86    2:20    0.0    54   53.3     2    111.9     4.4    999.0   0.00
  86    2:30    0.0    54   52.6     3    113.9     4.9    999.0   0.00
  86    2:40    0.0    55   52.2     3    114.3     4.9    999.0   0.00
  86    2:50    0.0    54   53.0     3    119.7     4.9    999.0   0.00
  86    3:00    0.0    54   53.4     3    118.4     5.5    999.0   0.00
  86    3:10    0.0    54   54.0     2    119.3     3.8    999.0   0.00
  86    3:20    0.0    54   53.8     3    112.7     6.0    999.0   0.00
  86    3:30    0.0    54   53.1     3    115.9     6.6    999.0   0.00
  86    3:40    0.0    53   54.6     2    121.5     4.4    999.0   0.00
  86    3:50    0.0    52   56.4     2    123.3     4.9    999.0   0.00
  86    4:00    0.0    52   55.9     2    119.3     4.4    999.0   0.00
  86    4:10    0.0    53   55.1     3    112.8     5.5    999.0   0.00
  86    4:20    0.0    53   54.4     3    116.4     4.9    999.0   0.00
  86    4:30    0.0    53   54.7     2    109.8     4.4    999.0   0.00
  86    4:40    0.0    53   54.8     2    115.6     3.8    999.0   0.00
  86    4:50    0.0    53   55.0     2    110.4     3.2    999.0   0.00
  86    5:00    0.0    52   56.0     2    114.6     3.2    999.0   0.00
  86    5:10    0.0    52   55.9     2    119.7     4.4    999.0   0.00
  86    5:20    0.0    51   57.4     1    120.4     4.4    999.0   0.00
  86    5:30    0.1    52   56.1     2    112.8     4.9    999.0   0.00
  86    5:40    0.6    52   55.3     2    113.2     4.4    999.0   0.00
  86    5:50    2.7    53   54.5     3    119.5     5.5    999.0   0.00
  86    6:00    5.8    52   55.1     3    117.9     5.5    999.0   0.00
  86    6:10    9.4    52   55.5     3    107.8     4.9    999.0   0.00
  86    6:20   13.0    54   53.1     4    115.0     5.5    999.0   0.00
  86    6:30   37.9    54   52.6     2    110.7     5.5    999.0   0.00
  86    6:40   88.0    56   52.4     2    125.2     3.8    999.0   0.00
  86    6:50  109.6    58   51.9     1    134.4     2.7    999.0   0.00
  86    7:00  130.4    61   49.4     0    111.1     2.1    999.0   0.00
  86    7:10  151.6    63   47.6     1    114.2     2.7    999.0   0.00
  86    7:20  174.5    65   44.8     1    103.1     3.2    999.0   0.00
  86    7:30  197.8    68   42.6     1    100.1     3.2    999.0   0.00
  86    7:40  221.2    71   38.3     2    105.4     3.2    999.0   0.00
  86    7:50  244.8    74   33.3     0    105.5     2.7    999.0   0.00
  86    8:00  268.5    78   29.4     0     15.3     4.4    999.0   0.00
  86    8:10  291.0    78   31.4     3    312.4     7.2    999.0   0.00
  86    8:20  312.8    74   50.5     3    270.4     6.0    999.0   0.00
  86    8:30  334.6    74   53.0     2    261.4     4.4    999.0   0.00
  86    8:40  356.3    76   51.2     2    285.6     3.8    999.0   0.00
  86    8:50  377.6    78   43.0     1    264.5     3.8    999.0   0.00
  86    9:00  398.1    81   37.9     1    249.0     4.9    999.0   0.00
  86    9:10  416.5    82   37.0     4    296.9     6.6    999.0   0.00
  86    9:20  435.2    81   34.3     4    304.5     8.3    999.0   0.00
  86    9:30  453.0    81   36.5     4    303.4     8.3    999.0   0.00
  86    9:40  470.6    82   32.1     4    302.7     7.2    999.0   0.00
  86    9:50  487.8    84   27.2     3    287.5     5.5    999.0   0.00
  86   10:00  503.4    85   24.6     4    286.2     8.3    999.0   0.00
  86   10:10  517.4    84   28.9     6    290.3    11.6    999.0   0.00
  86   10:20  530.3    81   35.6     6    302.3     8.8    999.0   0.00
  86   10:30  542.0    79   46.6     7    295.3    11.1    999.0   0.00
  86   10:40  552.4    78   54.8     6    297.6    10.0    999.0   0.00
  86   10:50  562.7    79   50.2     4    296.4     7.2    999.0   0.00
  86   11:00  571.9    80   50.5     5    294.3     8.8    999.0   0.00
  86   11:10  579.0    80   52.8     6    294.9     9.4    999.0   0.00
  86   11:20  585.6    80   54.1     5    288.1     9.4    999.0   0.00
  86   11:30  589.8    81   52.9     5    291.0    10.5    999.0   0.00
  86   11:40  594.9    82   48.0     6    294.9     9.4    999.0   0.00
  86   11:50  597.7    81   45.2     6    280.6    10.0    999.0   0.00
  86   12:00  599.9    83   40.8     6    279.4    10.0    999.0   0.00
  86   12:10  599.9    83   38.7     5    284.7    10.0    999.0   0.00
  86   12:20  598.6    82   33.1     6    284.8    10.5    999.0   0.00
  86   12:30  595.2    82   35.9     7    284.4    13.3    999.0   0.00
  86   12:40  591.0    79   44.8     7    288.3    12.8    999.0   0.00
  86   12:50  588.1    79   45.6     6    294.8    10.5    999.0   0.00
  86   13:00  583.4    80   45.8     6    297.6    10.0    999.0   0.00
  86   13:10  575.8    81   47.4     6    272.3    10.5    999.0   0.00
  86   13:20  567.7    79   49.3     6    273.3    11.6    999.0   0.00
  86   13:30  558.3    78   47.9     6    283.5    10.0    999.0   0.00
  86   13:40  548.5    79   43.1     6    279.0    10.0    999.0   0.00
  86   13:50  536.4    80   41.3     6    277.8    11.1    999.0   0.00
  86   14:00  522.8    79   41.0     7    294.8    11.1    999.0   0.00
  86   14:10  510.8    78   36.4     7    294.2    11.6    999.0   0.00
  86   14:20  496.7    78   39.0     6    272.9    10.5    999.0   0.00
  86   14:30  479.4    78   36.8     5    270.8     8.8    999.0   0.00
  86   14:40  461.9    78   35.5     5    287.5    10.5    999.0   0.00
  86   14:50  443.9    78   34.6     5    281.0     8.8    999.0   0.00
  86   15:00  425.0    78   33.6     5    288.8    10.0    999.0   0.00
  86   15:10  406.0    79   31.2     4    275.5     9.4    999.0   0.00
  86   15:20  385.6    80   31.4     5    283.7    10.0    999.0   0.00
  86   15:30  364.8    80   30.0     5    270.6     9.4    999.0   0.00
  86   15:40  343.7    80   28.7     4    263.5     8.3    999.0   0.00
  86   15:50  321.5    81   27.8     4    270.3     8.3    999.0   0.00
  86   16:00  298.8    80   27.5     4    270.1     8.3    999.0   0.00
  86   16:10  275.0    80   28.7     4    277.0     8.3    999.0   0.00
  86   16:20  252.2    79   29.7     5    262.5     8.3    999.0   0.00
  86   16:30  228.5    79   28.9     3    262.5     6.6    999.0   0.00
  86   16:40  204.4    78   32.9     4    273.6     7.2    999.0   0.00
  86   16:50  180.4    76   34.3     4    289.9     6.6    999.0   0.00
  86   17:00  156.4    76   35.1     2    269.9     6.6    999.0   0.00
  86   17:10  132.7    76   33.5     2    277.5     4.9    999.0   0.00
  86   17:20  109.6    76   34.7     1    274.1     3.8    999.0   0.00
  86   17:30   87.5    74   38.6     1    240.6     2.7    999.0   0.00
  86   17:40   41.8    72   39.5     0    205.3     1.6    999.0   0.00
  86   17:50   11.2    69   42.7     1    230.7     2.1    999.0   0.00
  86   18:00    8.0    66   49.1     0    358.6     1.6    999.0   0.00
  86   18:10    4.6    65   50.3     0     11.9     1.0    999.0   0.00
  86   18:20    1.8    64   49.9     0     12.0     1.6    999.0   0.00
  86   18:30    0.3    62   51.3     1     76.4     2.7    999.0   0.00
  86   18:40    0.0    60   54.2     1    102.9     2.7    999.0   0.00
  86   18:50    0.0    59   54.0     0     99.0     1.6    999.0   0.00
  86   19:00    0.0    58   55.2     0    102.6     2.1    999.0   0.00
  86   19:10    0.0    57   55.8     0    113.6     2.1    999.0   0.00
  86   19:20    0.0    57   56.3     2    112.4     4.4    999.0   0.00
  86   19:30    0.0    57   55.7     2    110.8     3.2    999.0   0.00
  86   19:40    0.0    56   56.2     1    107.8     3.2    999.0   0.00
  86   19:50    0.0    55   57.0     1    112.4     3.2    999.0   0.00
  86   20:00    0.0    54   57.6     0     95.6     2.7    999.0   0.00
  86   20:10    0.0    54   58.7     0      1.1     2.1    999.0   0.00
  86   20:20    0.0    52   60.6     1     69.2     2.7    999.0   0.00
  86   20:30    0.0    51   62.3     0    104.2     1.6    999.0   0.00
  86   20:40    0.0    51   60.9     1     97.8     3.2    999.0   0.00
  86   20:50    0.0    52   59.5     1     94.1     4.4    999.0   0.00
  86   21:00    0.0    52   59.0     0    113.9     2.7    999.0   0.00
  86   21:10    0.0    51   60.7     0      0.0     0.0    999.0   0.00
  86   21:20    0.0    50   61.7     0     79.9     1.6    999.0   0.00
  86   21:30    0.0    50   62.4     0     82.5     1.6    999.0   0.00
  86   21:40    0.0    50   63.0     0     97.1     2.1    999.0   0.00
  86   21:50    0.0    50   63.1     1    104.3     3.8    999.0   0.00
  86   22:00    0.0    49   63.2     0     71.4     2.1    999.0   0.00
  86   22:10    0.0    49   64.3     0    127.3     2.1    999.0   0.00
  86   22:20    0.0    49   64.6     2    109.5     4.9    999.0   0.00
  86   22:30    0.0    51   61.6     2    114.3     4.9    999.0   0.00
  86   22:40    0.0    51   61.4     2    105.4     4.9    999.0   0.00
  86   22:50    0.0    51   61.3     3    113.0     6.0    999.0   0.00
  86   23:00    0.0    52   60.8     4    112.4     7.2    999.0   0.00
  86   23:10    0.0    52   61.9     2    120.5     4.4    999.0   0.00
  86   23:20    0.0    51   62.8     2    124.1     3.8    999.0   0.00
  86   23:30    0.0    51   64.0     2    126.4     4.4    999.0   0.00
  86   23:40    0.0    51   63.4     3    122.9     6.6    999.0   0.00
  86   23:50    0.0    51   63.0     3    122.6     5.5    999.0   0.00
  87    0:00    0.0    51   62.1     3    113.7     6.0    999.0   0.00
  87    0:10    0.0    51   61.5     2    120.4     4.9    999.0   0.00
  87    0:20    0.0    51   61.8     2    126.4     5.5    999.0   0.00
  87    0:30    0.0    51   61.4     2    122.5     4.4    999.0   0.00
  87    0:40    0.0    51   62.2     1    123.0     3.2    999.0   0.00
  87    0:50    0.0    50   63.1     1    125.4     2.7    999.0   0.00
  87    1:00    0.0    51   61.8     2    121.6     4.4    999.0   0.00
  87    1:10    0.0    50   62.1     0     60.6     1.0    999.0   0.00
  87    1:20    0.0    50   63.8     2    123.9     4.4    999.0   0.00
  87    1:30    0.0    50   63.9     1    122.8     3.2    999.0   0.00
  87    1:40    0.0    48   66.4     1    288.6     6.6    999.0   0.00
  87    1:50    0.0    47   68.8     1     77.6     4.4    999.0   0.00

Return to Hayfield, Middle Canyon graphs page.


Western Regional Climate Center,wrcc@dri.edu